createdAt,value
2022-11-10T00:00:25.060Z,97449.34
2022-11-10T00:05:45.290Z,97471.03
2022-11-10T00:11:07.018Z,97473.53
2022-11-10T00:16:45.683Z,97477.38
2022-11-10T00:22:06.030Z,97478.44
2022-11-10T00:27:26.214Z,97480.91
2022-11-10T00:32:48.253Z,97485.31
2022-11-10T00:38:09.046Z,97500.66
2022-11-10T00:43:29.987Z,97520.44
2022-11-10T00:48:50.576Z,97527.28
2022-11-10T00:54:11.703Z,97533.81
2022-11-10T00:59:31.911Z,97549.38
2022-11-10T01:04:52.309Z,97550.41
2022-11-10T01:10:12.457Z,97558.84
2022-11-10T01:15:32.961Z,97557.25
2022-11-10T01:20:53.309Z,97558.09
2022-11-10T01:26:14.206Z,97558.09
2022-11-10T01:31:34.304Z,97557.25
2022-11-10T01:36:54.544Z,97561.63
2022-11-10T01:42:14.993Z,97563.31
2022-11-10T01:47:35.270Z,97553.72
2022-11-10T01:53:00.468Z,97553.47
2022-11-10T01:58:28.626Z,97564.47
2022-11-10T02:04:09.476Z,97571.63
2022-11-10T02:09:29.845Z,97573.53
2022-11-10T02:14:50.407Z,97583.66
2022-11-10T02:20:14.192Z,97593.81
2022-11-10T02:25:34.617Z,97606.13
2022-11-10T02:30:54.926Z,97606.13
2022-11-10T02:36:15.436Z,97615.47
2022-11-10T02:41:35.535Z,97613.22
2022-11-10T02:46:55.969Z,97620.91
2022-11-10T02:52:16.342Z,97626.19
2022-11-10T02:57:37.624Z,97631.41
2022-11-10T03:03:02.358Z,97634.97
2022-11-10T03:08:22.524Z,97630.03
2022-11-10T03:14:00.411Z,97655.50
2022-11-10T03:19:21.798Z,97667.59
2022-11-10T03:24:41.813Z,97674.97
2022-11-10T03:30:02.520Z,97672.78
2022-11-10T03:35:22.877Z,97686.75
2022-11-10T03:41:17.095Z,97686.47
2022-11-10T03:46:23.337Z,97688.97
2022-11-10T03:51:43.721Z,97699.41
2022-11-10T03:57:04.437Z,97713.97
2022-11-10T04:02:24.860Z,97721.34
2022-11-10T04:08:04.152Z,97738.66
2022-11-10T04:13:43.862Z,97750.38
2022-11-10T04:19:04.479Z,97747.03
2022-11-10T04:24:24.852Z,97749.97
2022-11-10T04:29:44.965Z,97755.16
2022-11-10T04:35:05.353Z,97761.72
2022-11-10T04:40:25.554Z,97768.88
2022-11-10T04:45:45.818Z,97767.22
2022-11-10T04:51:07.215Z,97775.31
2022-11-10T04:56:28.254Z,97790.00
2022-11-10T05:01:48.566Z,97790.84
2022-11-10T05:07:08.888Z,97809.78
2022-11-10T05:12:29.082Z,97818.19
2022-11-10T05:17:50.551Z,97821.44
2022-11-10T05:23:29.629Z,97819.47
2022-11-10T05:28:50.060Z,97821.66
2022-11-10T05:34:10.079Z,97830.06
2022-11-10T05:39:30.602Z,97842.69
2022-11-10T05:44:50.791Z,97853.31
2022-11-10T05:50:11.471Z,97863.31
2022-11-10T05:55:31.800Z,97867.97
2022-11-10T06:00:52.096Z,97872.63
2022-11-10T06:06:12.074Z,97893.38
2022-11-10T06:11:32.507Z,97897.69
2022-11-10T06:16:53.064Z,97913.50
2022-11-10T06:22:13.379Z,97928.19
2022-11-10T06:27:33.557Z,97936.19
2022-11-10T06:32:54.158Z,97961.94
2022-11-10T06:38:14.489Z,97972.97
2022-11-10T06:43:34.888Z,97984.69
2022-11-10T06:48:55.229Z,98000.09
2022-11-10T06:54:15.350Z,98013.00
2022-11-10T06:59:35.737Z,98015.41
2022-11-10T07:04:56.338Z,98036.91
2022-11-10T07:10:16.583Z,98048.16
2022-11-10T07:15:36.885Z,98062.44
2022-11-10T07:20:57.150Z,98048.88
2022-11-10T07:26:17.258Z,98058.84
2022-11-10T07:31:37.339Z,98066.63
2022-11-10T07:36:57.815Z,98071.22
2022-11-10T07:42:18.236Z,98074.63
2022-11-10T07:47:38.668Z,98085.19
2022-11-10T07:53:12.976Z,98096.72
2022-11-10T07:58:34.205Z,98106.59
2022-11-10T08:03:54.199Z,98115.97
2022-11-10T08:09:14.145Z,98122.78
2022-11-10T08:14:34.530Z,98130.13
2022-11-10T08:19:55.020Z,98138.50
2022-11-10T08:25:15.187Z,98141.34
2022-11-10T08:30:37.241Z,98151.06
2022-11-10T08:35:57.407Z,98149.31
2022-11-10T08:41:18.140Z,98154.34
2022-11-10T08:46:38.345Z,98165.44
2022-11-10T08:51:58.868Z,98175.50
2022-11-10T08:57:18.961Z,98183.63
2022-11-10T09:02:39.318Z,98185.22
2022-11-10T09:07:59.769Z,98191.34
2022-11-10T09:13:28.220Z,98205.59
2022-11-10T09:18:50.222Z,98216.91
2022-11-10T09:24:10.833Z,98219.09
2022-11-10T09:29:33.411Z,98216.38
2022-11-10T09:34:53.973Z,98229.59
2022-11-10T09:40:29.730Z,98230.69
2022-11-10T09:45:53.756Z,98251.53
2022-11-10T09:51:30.788Z,98251.44
2022-11-10T09:56:53.586Z,98267.44
2022-11-10T10:02:24.426Z,98254.72
2022-11-10T10:08:00.209Z,98258.75
2022-11-10T10:13:42.238Z,98260.66
2022-11-10T10:19:05.206Z,98271.19
2022-11-10T10:24:32.400Z,98280.97
2022-11-10T10:29:53.344Z,98291.59
2022-11-10T10:35:16.161Z,98289.41
2022-11-10T10:40:36.901Z,98299.13
2022-11-10T10:46:11.625Z,98298.19
2022-11-10T10:51:32.044Z,98308.13
2022-11-10T10:57:02.672Z,98306.91
2022-11-10T11:02:29.718Z,98306.56
2022-11-10T11:07:59.778Z,98312.28
2022-11-10T11:13:24.887Z,98300.03
2022-11-10T11:18:45.375Z,98304.94
2022-11-10T11:24:42.714Z,98299.09
2022-11-10T11:30:06.377Z,98295.47
2022-11-10T11:35:31.389Z,98290.94
2022-11-10T11:41:03.799Z,98292.69
2022-11-10T11:46:47.892Z,98296.19
2022-11-10T11:52:21.241Z,98286.88
2022-11-10T11:57:53.014Z,98306.16
2022-11-10T12:03:42.715Z,98307.72
2022-11-10T12:09:05.938Z,98314.63
2022-11-10T12:14:53.895Z,98318.22
2022-11-10T12:20:32.093Z,98309.97
2022-11-10T12:26:29.892Z,98302.84
2022-11-10T12:31:55.805Z,98297.66
2022-11-10T12:37:27.703Z,98295.16
2022-11-10T12:42:56.984Z,98285.06
2022-11-10T12:48:18.895Z,98275.31
2022-11-10T12:53:41.933Z,98287.84
2022-11-10T12:59:20.515Z,98286.56
2022-11-10T13:04:40.807Z,98295.19
2022-11-10T13:10:19.277Z,98301.09
2022-11-10T13:15:46.046Z,98294.59
2022-11-10T13:21:06.376Z,98295.13
2022-11-10T13:26:38.943Z,98299.31
2022-11-10T13:32:19.721Z,98296.38
2022-11-10T13:37:39.911Z,98288.03
2022-11-10T13:43:00.258Z,98296.84
2022-11-10T13:48:38.579Z,98281.13
2022-11-10T13:54:22.116Z,98307.22
2022-11-10T13:59:52.570Z,98310.66
2022-11-10T14:05:34.391Z,98311.66
2022-11-10T14:11:02.188Z,98317.41
2022-11-10T14:16:25.891Z,98328.28
2022-11-10T14:21:55.352Z,98320.53
2022-11-10T14:27:25.865Z,98332.59
2022-11-10T14:32:55.302Z,98326.94
2022-11-10T14:38:24.519Z,98333.16
2022-11-10T14:43:59.112Z,98331.97
2022-11-10T14:49:26.534Z,98335.03
2022-11-10T14:54:47.133Z,98332.34
2022-11-10T15:00:21.883Z,98333.13
2022-11-10T15:05:48.898Z,98337.13
2022-11-10T15:11:39.355Z,98342.16
2022-11-10T15:17:01.992Z,98356.59
2022-11-10T15:22:36.599Z,98354.00
2022-11-10T15:28:00.716Z,98364.13
2022-11-10T15:33:45.929Z,98389.47
2022-11-10T15:39:12.195Z,98397.84
2022-11-10T15:44:32.747Z,98397.63
2022-11-10T15:49:53.927Z,98409.97
2022-11-10T15:55:21.460Z,98411.91
2022-11-10T16:00:42.035Z,98416.59
2022-11-10T16:06:02.437Z,98419.13
2022-11-10T16:11:23.537Z,98430.91
2022-11-10T16:16:43.817Z,98435.91
2022-11-10T16:22:03.847Z,98430.53
2022-11-10T16:27:24.187Z,98447.34
2022-11-10T16:32:44.443Z,98451.13
2022-11-10T16:38:31.247Z,98464.25
2022-11-10T16:43:52.131Z,98472.50
2022-11-10T16:49:26.500Z,98471.69
2022-11-10T16:54:46.736Z,98481.41
2022-11-10T17:00:07.852Z,98494.28
2022-11-10T17:05:28.435Z,98503.34
2022-11-10T17:10:49.961Z,98498.50
2022-11-10T17:16:33.064Z,98505.38
2022-11-10T17:21:54.321Z,98520.16
2022-11-10T17:27:16.786Z,98510.09
2022-11-10T17:33:03.007Z,98503.47
2022-11-10T17:38:29.364Z,98514.47
2022-11-10T17:43:49.670Z,98520.75
2022-11-10T17:49:10.002Z,98525.38
2022-11-10T17:54:30.516Z,98531.53
2022-11-10T17:59:50.839Z,98533.94
2022-11-10T18:05:16.951Z,98534.19
2022-11-10T18:10:40.589Z,98548.28
2022-11-10T18:16:00.914Z,98549.03
2022-11-10T18:21:21.668Z,98558.78
2022-11-10T18:26:42.690Z,98541.22
2022-11-10T18:32:03.464Z,98525.66
2022-11-10T18:37:23.880Z,98518.06
2022-11-10T18:42:44.434Z,98532.28
2022-11-10T18:48:05.005Z,98532.22
2022-11-10T18:53:25.721Z,98526.97
2022-11-10T18:58:56.185Z,98542.97
2022-11-10T19:04:16.847Z,98534.16
2022-11-10T19:09:37.824Z,98543.84
2022-11-10T19:14:57.940Z,98545.16
2022-11-10T19:20:18.188Z,98541.03
2022-11-10T19:25:38.754Z,98537.69
2022-11-10T19:31:07.582Z,98546.72
2022-11-10T19:36:28.495Z,98547.78
2022-11-10T19:41:48.932Z,98576.94
2022-11-10T19:47:09.110Z,98584.50
2022-11-10T19:52:29.627Z,98594.47
2022-11-10T19:57:49.729Z,98592.81
2022-11-10T20:03:11.363Z,98587.09
2022-11-10T20:08:32.576Z,98589.59
2022-11-10T20:13:55.600Z,98600.44
2022-11-10T20:19:16.183Z,98611.78
2022-11-10T20:24:36.631Z,98621.81
2022-11-10T20:29:56.784Z,98623.28
2022-11-10T20:35:17.337Z,98631.88
2022-11-10T20:40:44.363Z,98642.03
2022-11-10T20:46:07.135Z,98650.88
2022-11-10T20:51:27.828Z,98646.28
2022-11-10T20:56:48.187Z,98646.28
2022-11-10T21:02:11.178Z,98629.50
2022-11-10T21:07:31.648Z,98634.13
2022-11-10T21:12:52.045Z,98634.53
2022-11-10T21:18:12.105Z,98632.88
2022-11-10T21:23:32.435Z,98638.31
2022-11-10T21:28:53.135Z,98629.53
2022-11-10T21:34:13.459Z,98630.38
2022-11-10T21:39:33.709Z,98637.06
2022-11-10T21:44:54.053Z,98638.75
2022-11-10T21:50:14.705Z,98651.13
2022-11-10T21:55:34.756Z,98635.81
2022-11-10T22:01:12.228Z,98627.88
2022-11-10T22:06:51.663Z,98635.41
2022-11-10T22:12:31.915Z,98638.34
2022-11-10T22:18:11.460Z,98642.53
2022-11-10T22:23:50.719Z,98648.59
2022-11-10T22:29:11.551Z,98637.69
2022-11-10T22:34:32.068Z,98646.44
2022-11-10T22:40:10.830Z,98642.72
2022-11-10T22:45:31.328Z,98642.72
2022-11-10T22:50:59.440Z,98633.28
2022-11-10T22:56:19.777Z,98651.91
2022-11-10T23:01:41.281Z,98645.00
2022-11-10T23:07:01.739Z,98646.25
2022-11-10T23:12:21.945Z,98648.75
2022-11-10T23:17:42.146Z,98645.38
2022-11-10T23:23:02.777Z,98636.16
2022-11-10T23:28:23.085Z,98632.38
2022-11-10T23:33:45.121Z,98633.38
2022-11-10T23:39:05.656Z,98645.06
2022-11-10T23:44:26.126Z,98633.16
2022-11-10T23:49:46.708Z,98636.09
2022-11-10T23:55:07.384Z,98638.19
